TimePDT,TemperatureF,Dew PointF,Humidity,Sea Level PressureIn,VisibilityMPH,Wind Direction,Wind SpeedMPH,Gust SpeedMPH,PrecipitationIn,Events,Conditions,WindDirDegrees,DateUTC
12:56 AM,32.0,28.9,88,30.43,10.0,Calm,Calm,-,N/A,,Clear,0,2013-10-05 07:56:00
1:56 AM,32.0,28.0,85,30.43,10.0,SSE,5.8,-,N/A,,Clear,150,2013-10-05 08:56:00
2:56 AM,28.0,26.1,92,30.42,10.0,Calm,Calm,-,N/A,,Clear,0,2013-10-05 09:56:00
3:56 AM,28.9,26.1,89,30.41,10.0,Calm,Calm,-,N/A,,Clear,0,2013-10-05 10:56:00
4:56 AM,28.0,26.1,92,30.41,10.0,Calm,Calm,-,N/A,,Clear,0,2013-10-05 11:56:00
5:56 AM,28.9,25.0,85,30.41,10.0,Calm,Calm,-,N/A,,Clear,0,2013-10-05 12:56:00
6:56 AM,24.1,21.0,88,30.43,10.0,Calm,Calm,-,N/A,,Clear,0,2013-10-05 13:56:00
7:56 AM,30.9,27.0,85,30.42,10.0,Calm,Calm,-,N/A,,Clear,0,2013-10-05 14:56:00
8:56 AM,46.9,28.9,50,30.40,10.0,ESE,5.8,-,N/A,,Clear,120,2013-10-05 15:56:00
9:56 AM,52.0,27.0,38,30.38,10.0,ENE,5.8,-,N/A,,Clear,70,2013-10-05 16:56:00
10:56 AM,57.9,24.1,27,30.37,10.0,SE,6.9,-,N/A,,Clear,130,2013-10-05 17:56:00
11:56 AM,62.1,23.0,22,30.35,10.0,SSE,6.9,-,N/A,,Clear,150,2013-10-05 18:56:00
12:56 PM,64.9,25.0,22,30.32,10.0,Calm,Calm,-,N/A,,Clear,0,2013-10-05 19:56:00
1:56 PM,69.1,21.9,17,30.27,10.0,SSW,5.8,-,N/A,,Clear,200,2013-10-05 20:56:00
2:56 PM,73.0,16.0,11,30.25,10.0,SSE,5.8,-,N/A,,Clear,150,2013-10-05 21:56:00
3:56 PM,75.0,14.0,10,30.23,10.0,Variable,3.5,-,N/A,,Clear,0,2013-10-05 22:56:00
4:56 PM,75.0,12.0,9,30.22,10.0,Calm,Calm,-,N/A,,Clear,0,2013-10-05 23:56:00
5:56 PM,66.0,35.1,32,30.23,10.0,NW,9.2,-,N/A,,Clear,320,2013-10-06 00:56:00
6:56 PM,59.0,35.1,41,30.25,10.0,WNW,6.9,-,N/A,,Clear,300,2013-10-06 01:56:00
7:56 PM,54.0,35.1,49,30.25,9.0,West,5.8,-,N/A,,Clear,260,2013-10-06 02:56:00
8:56 PM,46.0,34.0,63,30.25,10.0,SSE,3.5,-,N/A,,Clear,150,2013-10-06 03:56:00
9:56 PM,44.1,33.1,65,30.25,10.0,South,4.6,-,N/A,,Clear,170,2013-10-06 04:56:00
10:56 PM,42.1,33.1,70,30.24,10.0,South,8.1,-,N/A,,Clear,180,2013-10-06 05:56:00
11:56 PM,39.9,32.0,73,30.23,10.0,NE,3.5,-,N/A,,Clear,50,2013-10-06 06:56:00